Terminal Aerodrome Forecast
Issued by NWS

Home | Current Version | Previous Version | Text Only | Print | Product List | Glossary On
Versions: 1 2 3 4 5 6 7 8 9 10 11 12
000
FTUS45 KRIW 220528
TAFCPR
TAF
KCPR 220528Z 2206/2306 25014KT P6SM SCT200
     FM221000 23020G30KT P6SM SCT200
     FM221500 23032G45KT P6SM FEW070 SCT200
     FM222300 23018G30KT P6SM FEW090 BKN200=

USA.gov is the U.S. government's official web portal to all federal, state and local government web resources and services.